sensor_id;sensor_type;location;lat;lon;timestamp;P1;durP1;ratioP1;P2;durP2;ratioP2
46437;SDS011;32137;48.728;9.142;2023-05-07T00:00:20;7.38;;;4.40;;
46437;SDS011;32137;48.728;9.142;2023-05-07T00:02:46;8.02;;;4.53;;
46437;SDS011;32137;48.728;9.142;2023-05-07T00:05:12;6.80;;;3.75;;
46437;SDS011;32137;48.728;9.142;2023-05-07T00:07:37;8.82;;;4.65;;
46437;SDS011;32137;48.728;9.142;2023-05-07T00:10:03;5.90;;;4.40;;
46437;SDS011;32137;48.728;9.142;2023-05-07T00:12:31;9.15;;;3.70;;
46437;SDS011;32137;48.728;9.142;2023-05-07T00:14:58;7.30;;;4.43;;
46437;SDS011;32137;48.728;9.142;2023-05-07T00:17:24;6.95;;;4.97;;
46437;SDS011;32137;48.728;9.142;2023-05-07T00:19:49;6.10;;;4.50;;
46437;SDS011;32137;48.728;9.142;2023-05-07T00:22:15;5.95;;;4.05;;
46437;SDS011;32137;48.728;9.142;2023-05-07T00:24:41;5.90;;;3.70;;
46437;SDS011;32137;48.728;9.142;2023-05-07T00:27:06;12.27;;;4.60;;
46437;SDS011;32137;48.728;9.142;2023-05-07T00:29:32;5.90;;;3.40;;
46437;SDS011;32137;48.728;9.142;2023-05-07T00:31:57;5.88;;;3.55;;
46437;SDS011;32137;48.728;9.142;2023-05-07T00:34:23;6.57;;;4.05;;
46437;SDS011;32137;48.728;9.142;2023-05-07T00:36:49;8.10;;;4.07;;
46437;SDS011;32137;48.728;9.142;2023-05-07T00:39:14;5.50;;;4.07;;
46437;SDS011;32137;48.728;9.142;2023-05-07T00:41:40;7.72;;;4.45;;
46437;SDS011;32137;48.728;9.142;2023-05-07T00:44:05;6.10;;;4.15;;
46437;SDS011;32137;48.728;9.142;2023-05-07T00:46:31;9.63;;;3.80;;
46437;SDS011;32137;48.728;9.142;2023-05-07T00:48:57;7.60;;;4.13;;
46437;SDS011;32137;48.728;9.142;2023-05-07T00:51:24;6.97;;;3.70;;
46437;SDS011;32137;48.728;9.142;2023-05-07T00:53:52;6.78;;;4.00;;
46437;SDS011;32137;48.728;9.142;2023-05-07T00:56:18;5.88;;;4.15;;
46437;SDS011;32137;48.728;9.142;2023-05-07T00:58:46;13.80;;;6.55;;
46437;SDS011;32137;48.728;9.142;2023-05-07T01:01:12;51.22;;;25.20;;
46437;SDS011;32137;48.728;9.142;2023-05-07T01:03:37;11.52;;;6.40;;
46437;SDS011;32137;48.728;9.142;2023-05-07T01:06:03;8.00;;;4.35;;
46437;SDS011;32137;48.728;9.142;2023-05-07T01:08:31;10.25;;;4.25;;
46437;SDS011;32137;48.728;9.142;2023-05-07T01:10:57;5.50;;;4.10;;
46437;SDS011;32137;48.728;9.142;2023-05-07T01:13:24;7.97;;;4.80;;
46437;SDS011;32137;48.728;9.142;2023-05-07T01:15:50;6.90;;;3.67;;
46437;SDS011;32137;48.728;9.142;2023-05-07T01:18:16;5.57;;;3.80;;
46437;SDS011;32137;48.728;9.142;2023-05-07T01:20:42;7.82;;;5.13;;
46437;SDS011;32137;48.728;9.142;2023-05-07T01:23:07;7.85;;;4.05;;
46437;SDS011;32137;48.728;9.142;2023-05-07T01:25:35;6.05;;;3.92;;
46437;SDS011;32137;48.728;9.142;2023-05-07T01:28:01;6.95;;;3.95;;
46437;SDS011;32137;48.728;9.142;2023-05-07T01:30:27;8.57;;;4.30;;
46437;SDS011;32137;48.728;9.142;2023-05-07T01:32:57;6.00;;;4.50;;
46437;SDS011;32137;48.728;9.142;2023-05-07T01:35:36;7.72;;;4.22;;
46437;SDS011;32137;48.728;9.142;2023-05-07T01:38:04;7.18;;;4.07;;
46437;SDS011;32137;48.728;9.142;2023-05-07T01:40:31;7.50;;;4.25;;
46437;SDS011;32137;48.728;9.142;2023-05-07T01:42:56;5.82;;;4.03;;
46437;SDS011;32137;48.728;9.142;2023-05-07T01:45:22;6.60;;;3.90;;
46437;SDS011;32137;48.728;9.142;2023-05-07T01:47:49;20.92;;;4.47;;
46437;SDS011;32137;48.728;9.142;2023-05-07T01:50:15;6.55;;;3.60;;
46437;SDS011;32137;48.728;9.142;2023-05-07T01:52:43;5.55;;;3.95;;
46437;SDS011;32137;48.728;9.142;2023-05-07T01:55:09;6.13;;;3.97;;
46437;SDS011;32137;48.728;9.142;2023-05-07T01:57:35;7.13;;;4.32;;
46437;SDS011;32137;48.728;9.142;2023-05-07T02:00:00;6.68;;;4.05;;
46437;SDS011;32137;48.728;9.142;2023-05-07T02:02:31;6.82;;;3.85;;
46437;SDS011;32137;48.728;9.142;2023-05-07T02:04:56;5.97;;;4.38;;
46437;SDS011;32137;48.728;9.142;2023-05-07T02:07:22;4.22;;;3.50;;
46437;SDS011;32137;48.728;9.142;2023-05-07T02:09:47;5.00;;;3.88;;
46437;SDS011;32137;48.728;9.142;2023-05-07T02:12:13;7.80;;;5.00;;
46437;SDS011;32137;48.728;9.142;2023-05-07T02:14:38;7.47;;;4.20;;
46437;SDS011;32137;48.728;9.142;2023-05-07T02:17:04;5.90;;;3.60;;
46437;SDS011;32137;48.728;9.142;2023-05-07T02:19:29;11.90;;;4.72;;
46437;SDS011;32137;48.728;9.142;2023-05-07T02:21:55;6.05;;;3.85;;
46437;SDS011;32137;48.728;9.142;2023-05-07T02:24:21;8.52;;;4.43;;
46437;SDS011;32137;48.728;9.142;2023-05-07T02:26:46;6.10;;;4.15;;
46437;SDS011;32137;48.728;9.142;2023-05-07T02:29:12;6.05;;;4.15;;
46437;SDS011;32137;48.728;9.142;2023-05-07T02:31:37;7.45;;;4.72;;
46437;SDS011;32137;48.728;9.142;2023-05-07T02:34:03;5.68;;;3.83;;
46437;SDS011;32137;48.728;9.142;2023-05-07T02:36:28;6.07;;;3.55;;
46437;SDS011;32137;48.728;9.142;2023-05-07T02:38:54;9.98;;;3.72;;
46437;SDS011;32137;48.728;9.142;2023-05-07T02:41:20;9.25;;;4.68;;
46437;SDS011;32137;48.728;9.142;2023-05-07T02:43:45;12.00;;;4.63;;
46437;SDS011;32137;48.728;9.142;2023-05-07T02:46:11;8.02;;;4.10;;
46437;SDS011;32137;48.728;9.142;2023-05-07T02:48:37;5.45;;;3.95;;
46437;SDS011;32137;48.728;9.142;2023-05-07T02:51:03;5.38;;;4.18;;
46437;SDS011;32137;48.728;9.142;2023-05-07T02:53:29;5.03;;;4.07;;
46437;SDS011;32137;48.728;9.142;2023-05-07T02:55:58;5.18;;;3.72;;
46437;SDS011;32137;48.728;9.142;2023-05-07T02:58:24;5.45;;;3.67;;
46437;SDS011;32137;48.728;9.142;2023-05-07T03:00:50;6.28;;;3.58;;
46437;SDS011;32137;48.728;9.142;2023-05-07T03:03:15;6.53;;;4.43;;
46437;SDS011;32137;48.728;9.142;2023-05-07T03:05:41;7.68;;;4.53;;
46437;SDS011;32137;48.728;9.142;2023-05-07T03:08:07;7.70;;;4.57;;
46437;SDS011;32137;48.728;9.142;2023-05-07T03:10:33;6.32;;;4.03;;
46437;SDS011;32137;48.728;9.142;2023-05-07T03:13:00;7.25;;;4.45;;
46437;SDS011;32137;48.728;9.142;2023-05-07T03:15:25;5.05;;;4.03;;
46437;SDS011;32137;48.728;9.142;2023-05-07T03:17:51;5.50;;;4.15;;
46437;SDS011;32137;48.728;9.142;2023-05-07T03:20:16;7.38;;;4.75;;
46437;SDS011;32137;48.728;9.142;2023-05-07T03:22:42;5.72;;;3.95;;
46437;SDS011;32137;48.728;9.142;2023-05-07T03:25:08;5.10;;;4.00;;
46437;SDS011;32137;48.728;9.142;2023-05-07T03:27:34;4.65;;;3.50;;
46437;SDS011;32137;48.728;9.142;2023-05-07T03:29:59;7.22;;;4.35;;
46437;SDS011;32137;48.728;9.142;2023-05-07T03:32:25;6.63;;;4.05;;
46437;SDS011;32137;48.728;9.142;2023-05-07T03:34:51;7.82;;;5.43;;
46437;SDS011;32137;48.728;9.142;2023-05-07T03:37:17;4.72;;;3.58;;
46437;SDS011;32137;48.728;9.142;2023-05-07T03:39:43;9.32;;;4.30;;
46437;SDS011;32137;48.728;9.142;2023-05-07T03:42:08;7.68;;;4.15;;
46437;SDS011;32137;48.728;9.142;2023-05-07T03:44:34;5.13;;;4.38;;
46437;SDS011;32137;48.728;9.142;2023-05-07T03:47:01;11.10;;;3.80;;
46437;SDS011;32137;48.728;9.142;2023-05-07T03:49:27;8.52;;;4.00;;
46437;SDS011;32137;48.728;9.142;2023-05-07T03:51:52;5.97;;;4.32;;
46437;SDS011;32137;48.728;9.142;2023-05-07T03:54:18;8.25;;;4.28;;
46437;SDS011;32137;48.728;9.142;2023-05-07T03:56:43;5.78;;;4.22;;
46437;SDS011;32137;48.728;9.142;2023-05-07T03:59:09;6.35;;;4.20;;
46437;SDS011;32137;48.728;9.142;2023-05-07T04:01:34;8.27;;;3.92;;
46437;SDS011;32137;48.728;9.142;2023-05-07T04:04:00;7.60;;;4.75;;
46437;SDS011;32137;48.728;9.142;2023-05-07T04:06:26;6.63;;;3.45;;
46437;SDS011;32137;48.728;9.142;2023-05-07T04:08:52;6.32;;;4.18;;
46437;SDS011;32137;48.728;9.142;2023-05-07T04:11:18;9.82;;;4.63;;
46437;SDS011;32137;48.728;9.142;2023-05-07T04:13:43;6.75;;;4.38;;
46437;SDS011;32137;48.728;9.142;2023-05-07T04:16:09;5.78;;;4.50;;
46437;SDS011;32137;48.728;9.142;2023-05-07T04:18:34;6.35;;;4.20;;
46437;SDS011;32137;48.728;9.142;2023-05-07T04:21:00;5.20;;;3.67;;
46437;SDS011;32137;48.728;9.142;2023-05-07T04:23:25;7.72;;;4.18;;
46437;SDS011;32137;48.728;9.142;2023-05-07T04:25:51;7.32;;;4.43;;
46437;SDS011;32137;48.728;9.142;2023-05-07T04:28:17;10.95;;;4.25;;
46437;SDS011;32137;48.728;9.142;2023-05-07T04:30:43;6.43;;;4.00;;
46437;SDS011;32137;48.728;9.142;2023-05-07T04:33:08;7.00;;;4.18;;
46437;SDS011;32137;48.728;9.142;2023-05-07T04:35:34;7.90;;;5.63;;
46437;SDS011;32137;48.728;9.142;2023-05-07T04:38:00;13.32;;;4.45;;
46437;SDS011;32137;48.728;9.142;2023-05-07T04:40:26;6.15;;;4.43;;
46437;SDS011;32137;48.728;9.142;2023-05-07T04:42:52;7.68;;;4.35;;
46437;SDS011;32137;48.728;9.142;2023-05-07T04:45:18;8.93;;;4.00;;
46437;SDS011;32137;48.728;9.142;2023-05-07T04:47:43;6.28;;;4.57;;
46437;SDS011;32137;48.728;9.142;2023-05-07T04:50:09;10.75;;;4.30;;
46437;SDS011;32137;48.728;9.142;2023-05-07T04:52:35;6.60;;;4.07;;
46437;SDS011;32137;48.728;9.142;2023-05-07T04:55:01;6.72;;;4.25;;
46437;SDS011;32137;48.728;9.142;2023-05-07T04:57:26;10.95;;;3.95;;
46437;SDS011;32137;48.728;9.142;2023-05-07T04:59:52;6.63;;;4.28;;
46437;SDS011;32137;48.728;9.142;2023-05-07T05:02:19;6.88;;;4.90;;
46437;SDS011;32137;48.728;9.142;2023-05-07T05:04:44;6.97;;;4.20;;
46437;SDS011;32137;48.728;9.142;2023-05-07T05:07:10;5.88;;;4.43;;
46437;SDS011;32137;48.728;9.142;2023-05-07T05:09:35;7.78;;;4.38;;
46437;SDS011;32137;48.728;9.142;2023-05-07T05:12:01;7.40;;;4.88;;
46437;SDS011;32137;48.728;9.142;2023-05-07T05:14:26;8.40;;;4.70;;
46437;SDS011;32137;48.728;9.142;2023-05-07T05:16:52;11.35;;;5.85;;
46437;SDS011;32137;48.728;9.142;2023-05-07T05:19:17;7.90;;;4.43;;
46437;SDS011;32137;48.728;9.142;2023-05-07T05:21:43;8.27;;;5.15;;
46437;SDS011;32137;48.728;9.142;2023-05-07T05:24:09;8.20;;;4.32;;
46437;SDS011;32137;48.728;9.142;2023-05-07T05:26:34;6.43;;;4.00;;
46437;SDS011;32137;48.728;9.142;2023-05-07T05:29:00;6.72;;;3.92;;
46437;SDS011;32137;48.728;9.142;2023-05-07T05:31:25;5.53;;;3.92;;
46437;SDS011;32137;48.728;9.142;2023-05-07T05:33:51;6.53;;;4.57;;
46437;SDS011;32137;48.728;9.142;2023-05-07T05:36:17;6.13;;;3.80;;
46437;SDS011;32137;48.728;9.142;2023-05-07T05:38:42;7.55;;;4.07;;
46437;SDS011;32137;48.728;9.142;2023-05-07T05:41:09;6.53;;;3.97;;
46437;SDS011;32137;48.728;9.142;2023-05-07T05:43:35;4.47;;;3.90;;
46437;SDS011;32137;48.728;9.142;2023-05-07T05:46:00;4.55;;;3.53;;
46437;SDS011;32137;48.728;9.142;2023-05-07T05:48:26;4.57;;;3.55;;
46437;SDS011;32137;48.728;9.142;2023-05-07T05:50:52;6.47;;;3.80;;
46437;SDS011;32137;48.728;9.142;2023-05-07T05:53:17;8.20;;;3.60;;
46437;SDS011;32137;48.728;9.142;2023-05-07T05:55:43;4.38;;;3.83;;
46437;SDS011;32137;48.728;9.142;2023-05-07T05:58:09;7.85;;;3.80;;
46437;SDS011;32137;48.728;9.142;2023-05-07T06:00:34;5.85;;;4.18;;
46437;SDS011;32137;48.728;9.142;2023-05-07T06:03:00;5.70;;;3.70;;
46437;SDS011;32137;48.728;9.142;2023-05-07T06:05:25;4.85;;;3.80;;
46437;SDS011;32137;48.728;9.142;2023-05-07T06:07:51;7.05;;;4.15;;
46437;SDS011;32137;48.728;9.142;2023-05-07T06:10:17;8.15;;;4.03;;
46437;SDS011;32137;48.728;9.142;2023-05-07T06:12:42;4.97;;;3.30;;
46437;SDS011;32137;48.728;9.142;2023-05-07T06:15:08;5.55;;;3.83;;
46437;SDS011;32137;48.728;9.142;2023-05-07T06:17:34;4.95;;;2.95;;
46437;SDS011;32137;48.728;9.142;2023-05-07T06:19:59;4.03;;;2.83;;
46437;SDS011;32137;48.728;9.142;2023-05-07T06:22:25;5.15;;;3.13;;
46437;SDS011;32137;48.728;9.142;2023-05-07T06:24:51;4.50;;;2.88;;
46437;SDS011;32137;48.728;9.142;2023-05-07T06:27:16;4.30;;;3.50;;
46437;SDS011;32137;48.728;9.142;2023-05-07T06:29:42;4.15;;;3.30;;
46437;SDS011;32137;48.728;9.142;2023-05-07T06:32:08;5.93;;;3.65;;
46437;SDS011;32137;48.728;9.142;2023-05-07T06:34:34;4.97;;;3.97;;
46437;SDS011;32137;48.728;9.142;2023-05-07T06:37:00;5.95;;;4.65;;
46437;SDS011;32137;48.728;9.142;2023-05-07T06:39:25;10.25;;;3.83;;
46437;SDS011;32137;48.728;9.142;2023-05-07T06:41:51;6.65;;;4.20;;
46437;SDS011;32137;48.728;9.142;2023-05-07T06:44:16;6.43;;;4.55;;
46437;SDS011;32137;48.728;9.142;2023-05-07T06:46:42;5.70;;;4.63;;
46437;SDS011;32137;48.728;9.142;2023-05-07T06:49:07;6.05;;;3.33;;
46437;SDS011;32137;48.728;9.142;2023-05-07T06:51:33;5.90;;;3.55;;
46437;SDS011;32137;48.728;9.142;2023-05-07T06:53:58;7.22;;;3.97;;
46437;SDS011;32137;48.728;9.142;2023-05-07T06:56:24;7.38;;;3.35;;
46437;SDS011;32137;48.728;9.142;2023-05-07T06:58:50;6.22;;;3.50;;
46437;SDS011;32137;48.728;9.142;2023-05-07T07:01:15;7.05;;;3.75;;
46437;SDS011;32137;48.728;9.142;2023-05-07T07:03:41;8.45;;;4.18;;
46437;SDS011;32137;48.728;9.142;2023-05-07T07:06:06;5.65;;;4.47;;
46437;SDS011;32137;48.728;9.142;2023-05-07T07:08:32;7.65;;;3.72;;
46437;SDS011;32137;48.728;9.142;2023-05-07T07:10:58;6.05;;;3.20;;
46437;SDS011;32137;48.728;9.142;2023-05-07T07:13:23;11.18;;;4.20;;
46437;SDS011;32137;48.728;9.142;2023-05-07T07:15:49;6.68;;;4.60;;
46437;SDS011;32137;48.728;9.142;2023-05-07T07:18:15;8.63;;;4.22;;
46437;SDS011;32137;48.728;9.142;2023-05-07T07:20:40;5.80;;;4.50;;
46437;SDS011;32137;48.728;9.142;2023-05-07T07:23:06;9.35;;;4.50;;
46437;SDS011;32137;48.728;9.142;2023-05-07T07:25:31;7.15;;;4.72;;
46437;SDS011;32137;48.728;9.142;2023-05-07T07:27:57;4.95;;;4.10;;
46437;SDS011;32137;48.728;9.142;2023-05-07T07:30:22;4.03;;;3.63;;
46437;SDS011;32137;48.728;9.142;2023-05-07T07:32:48;4.72;;;3.92;;
46437;SDS011;32137;48.728;9.142;2023-05-07T07:35:14;5.95;;;3.67;;
46437;SDS011;32137;48.728;9.142;2023-05-07T07:37:39;5.30;;;3.83;;
46437;SDS011;32137;48.728;9.142;2023-05-07T07:40:05;6.85;;;3.67;;
46437;SDS011;32137;48.728;9.142;2023-05-07T07:42:31;6.45;;;3.88;;
46437;SDS011;32137;48.728;9.142;2023-05-07T07:44:57;4.68;;;3.92;;
46437;SDS011;32137;48.728;9.142;2023-05-07T07:47:22;6.97;;;4.40;;
46437;SDS011;32137;48.728;9.142;2023-05-07T07:49:48;9.43;;;4.35;;
46437;SDS011;32137;48.728;9.142;2023-05-07T07:52:13;7.68;;;4.50;;
46437;SDS011;32137;48.728;9.142;2023-05-07T07:54:39;10.20;;;4.30;;
46437;SDS011;32137;48.728;9.142;2023-05-07T07:57:05;5.25;;;3.70;;
46437;SDS011;32137;48.728;9.142;2023-05-07T07:59:30;5.22;;;3.63;;
46437;SDS011;32137;48.728;9.142;2023-05-07T08:01:56;6.82;;;3.90;;
46437;SDS011;32137;48.728;9.142;2023-05-07T08:04:22;5.45;;;4.25;;
46437;SDS011;32137;48.728;9.142;2023-05-07T08:06:47;6.45;;;4.15;;
46437;SDS011;32137;48.728;9.142;2023-05-07T08:09:13;11.75;;;4.90;;
46437;SDS011;32137;48.728;9.142;2023-05-07T08:11:39;8.13;;;3.95;;
46437;SDS011;32137;48.728;9.142;2023-05-07T08:14:05;5.00;;;3.47;;
46437;SDS011;32137;48.728;9.142;2023-05-07T08:16:30;8.98;;;3.28;;
46437;SDS011;32137;48.728;9.142;2023-05-07T08:18:56;5.45;;;2.90;;
46437;SDS011;32137;48.728;9.142;2023-05-07T08:21:22;4.22;;;2.25;;
46437;SDS011;32137;48.728;9.142;2023-05-07T08:23:48;8.38;;;3.70;;
46437;SDS011;32137;48.728;9.142;2023-05-07T08:26:14;5.05;;;3.08;;
46437;SDS011;32137;48.728;9.142;2023-05-07T08:28:40;4.30;;;3.08;;
46437;SDS011;32137;48.728;9.142;2023-05-07T08:31:05;4.15;;;3.03;;
46437;SDS011;32137;48.728;9.142;2023-05-07T08:33:31;5.22;;;3.25;;
46437;SDS011;32137;48.728;9.142;2023-05-07T08:35:56;6.55;;;2.92;;
46437;SDS011;32137;48.728;9.142;2023-05-07T08:38:22;3.83;;;2.60;;
46437;SDS011;32137;48.728;9.142;2023-05-07T08:40:47;4.32;;;2.72;;
46437;SDS011;32137;48.728;9.142;2023-05-07T08:43:13;7.70;;;3.90;;
46437;SDS011;32137;48.728;9.142;2023-05-07T08:45:40;7.03;;;2.92;;
46437;SDS011;32137;48.728;9.142;2023-05-07T08:48:10;5.75;;;3.58;;
46437;SDS011;32137;48.728;9.142;2023-05-07T08:50:40;3.60;;;2.65;;
46437;SDS011;32137;48.728;9.142;2023-05-07T08:53:06;8.75;;;3.50;;
46437;SDS011;32137;48.728;9.142;2023-05-07T08:55:31;7.00;;;3.45;;
46437;SDS011;32137;48.728;9.142;2023-05-07T08:57:58;4.30;;;2.92;;
46437;SDS011;32137;48.728;9.142;2023-05-07T09:00:24;5.10;;;2.50;;
46437;SDS011;32137;48.728;9.142;2023-05-07T09:02:49;4.43;;;2.60;;
46437;SDS011;32137;48.728;9.142;2023-05-07T09:05:15;4.90;;;3.05;;
46437;SDS011;32137;48.728;9.142;2023-05-07T09:07:41;6.32;;;3.30;;
46437;SDS011;32137;48.728;9.142;2023-05-07T09:10:07;5.95;;;3.00;;
46437;SDS011;32137;48.728;9.142;2023-05-07T09:12:33;4.28;;;3.22;;
46437;SDS011;32137;48.728;9.142;2023-05-07T09:15:00;6.25;;;3.17;;
46437;SDS011;32137;48.728;9.142;2023-05-07T09:17:25;5.10;;;3.13;;
46437;SDS011;32137;48.728;9.142;2023-05-07T09:19:51;5.57;;;3.28;;
46437;SDS011;32137;48.728;9.142;2023-05-07T09:22:18;8.07;;;3.40;;
46437;SDS011;32137;48.728;9.142;2023-05-07T09:24:50;3.85;;;2.95;;
46437;SDS011;32137;48.728;9.142;2023-05-07T09:27:16;5.90;;;2.67;;
46437;SDS011;32137;48.728;9.142;2023-05-07T09:29:43;11.13;;;2.80;;
46437;SDS011;32137;48.728;9.142;2023-05-07T09:32:09;4.75;;;2.97;;
46437;SDS011;32137;48.728;9.142;2023-05-07T09:34:35;6.43;;;2.45;;
46437;SDS011;32137;48.728;9.142;2023-05-07T09:37:04;4.22;;;2.50;;
46437;SDS011;32137;48.728;9.142;2023-05-07T09:42:06;4.60;;;2.50;;
46437;SDS011;32137;48.728;9.142;2023-05-07T09:44:33;4.00;;;2.60;;
46437;SDS011;32137;48.728;9.142;2023-05-07T09:46:59;5.60;;;3.10;;
46437;SDS011;32137;48.728;9.142;2023-05-07T09:49:25;6.88;;;2.65;;
46437;SDS011;32137;48.728;9.142;2023-05-07T09:51:55;4.10;;;2.50;;
46437;SDS011;32137;48.728;9.142;2023-05-07T09:54:21;4.70;;;2.80;;
46437;SDS011;32137;48.728;9.142;2023-05-07T09:56:50;4.63;;;2.30;;
46437;SDS011;32137;48.728;9.142;2023-05-07T09:59:17;3.00;;;2.22;;
46437;SDS011;32137;48.728;9.142;2023-05-07T10:01:45;4.95;;;2.45;;
46437;SDS011;32137;48.728;9.142;2023-05-07T10:04:11;4.15;;;2.13;;
46437;SDS011;32137;48.728;9.142;2023-05-07T10:06:37;4.90;;;2.70;;
46437;SDS011;32137;48.728;9.142;2023-05-07T10:09:03;4.53;;;2.35;;
46437;SDS011;32137;48.728;9.142;2023-05-07T10:11:33;3.85;;;2.05;;
46437;SDS011;32137;48.728;9.142;2023-05-07T10:14:00;3.13;;;2.03;;
46437;SDS011;32137;48.728;9.142;2023-05-07T10:16:27;6.65;;;3.35;;
46437;SDS011;32137;48.728;9.142;2023-05-07T10:18:58;4.33;;;3.00;;
46437;SDS011;32137;48.728;9.142;2023-05-07T10:21:24;5.85;;;3.20;;
46437;SDS011;32137;48.728;9.142;2023-05-07T10:23:57;5.20;;;2.83;;
46437;SDS011;32137;48.728;9.142;2023-05-07T10:26:31;5.68;;;2.22;;
46437;SDS011;32137;48.728;9.142;2023-05-07T10:29:25;4.88;;;2.40;;
46437;SDS011;32137;48.728;9.142;2023-05-07T10:31:51;3.83;;;2.10;;
46437;SDS011;32137;48.728;9.142;2023-05-07T10:34:39;3.13;;;2.22;;
46437;SDS011;32137;48.728;9.142;2023-05-07T10:37:08;4.97;;;2.10;;
46437;SDS011;32137;48.728;9.142;2023-05-07T10:39:35;2.75;;;1.92;;
46437;SDS011;32137;48.728;9.142;2023-05-07T10:42:07;3.00;;;2.03;;
46437;SDS011;32137;48.728;9.142;2023-05-07T10:44:33;3.55;;;2.30;;
46437;SDS011;32137;48.728;9.142;2023-05-07T10:47:04;3.33;;;2.00;;
46437;SDS011;32137;48.728;9.142;2023-05-07T10:49:34;2.72;;;1.90;;
46437;SDS011;32137;48.728;9.142;2023-05-07T10:52:21;3.80;;;2.40;;
46437;SDS011;32137;48.728;9.142;2023-05-07T10:57:46;5.57;;;1.98;;
46437;SDS011;32137;48.728;9.142;2023-05-07T11:05:24;3.55;;;2.28;;
46437;SDS011;32137;48.728;9.142;2023-05-07T11:07:57;6.78;;;2.53;;
46437;SDS011;32137;48.728;9.142;2023-05-07T11:13:19;3.17;;;2.15;;
46437;SDS011;32137;48.728;9.142;2023-05-07T11:16:17;3.55;;;1.90;;
46437;SDS011;32137;48.728;9.142;2023-05-07T11:18:52;3.47;;;1.70;;
46437;SDS011;32137;48.728;9.142;2023-05-07T11:21:31;9.18;;;4.93;;
46437;SDS011;32137;48.728;9.142;2023-05-07T11:24:00;3.95;;;2.10;;
46437;SDS011;32137;48.728;9.142;2023-05-07T11:26:28;8.48;;;3.13;;
46437;SDS011;32137;48.728;9.142;2023-05-07T11:29:10;3.15;;;1.95;;
46437;SDS011;32137;48.728;9.142;2023-05-07T11:31:36;3.10;;;1.83;;
46437;SDS011;32137;48.728;9.142;2023-05-07T11:34:02;3.88;;;2.38;;
46437;SDS011;32137;48.728;9.142;2023-05-07T11:36:30;2.78;;;2.00;;
46437;SDS011;32137;48.728;9.142;2023-05-07T11:38:57;7.97;;;2.25;;
46437;SDS011;32137;48.728;9.142;2023-05-07T11:41:32;4.35;;;1.88;;
46437;SDS011;32137;48.728;9.142;2023-05-07T11:44:01;3.15;;;1.65;;
46437;SDS011;32137;48.728;9.142;2023-05-07T11:46:27;6.20;;;2.25;;
46437;SDS011;32137;48.728;9.142;2023-05-07T11:48:54;6.03;;;2.10;;
46437;SDS011;32137;48.728;9.142;2023-05-07T11:51:21;2.90;;;1.90;;
46437;SDS011;32137;48.728;9.142;2023-05-07T11:53:51;7.88;;;3.30;;
46437;SDS011;32137;48.728;9.142;2023-05-07T11:56:17;2.83;;;2.20;;
46437;SDS011;32137;48.728;9.142;2023-05-07T11:58:44;9.18;;;2.25;;
46437;SDS011;32137;48.728;9.142;2023-05-07T12:01:12;4.43;;;2.20;;
46437;SDS011;32137;48.728;9.142;2023-05-07T12:03:41;2.70;;;2.10;;
46437;SDS011;32137;48.728;9.142;2023-05-07T12:06:09;3.40;;;2.27;;
46437;SDS011;32137;48.728;9.142;2023-05-07T12:08:39;7.03;;;2.63;;
46437;SDS011;32137;48.728;9.142;2023-05-07T12:11:09;9.80;;;3.28;;
46437;SDS011;32137;48.728;9.142;2023-05-07T12:13:38;6.97;;;2.90;;
46437;SDS011;32137;48.728;9.142;2023-05-07T12:16:03;5.32;;;3.15;;
46437;SDS011;32137;48.728;9.142;2023-05-07T12:18:30;6.72;;;2.50;;
46437;SDS011;32137;48.728;9.142;2023-05-07T12:20:56;6.90;;;4.22;;
46437;SDS011;32137;48.728;9.142;2023-05-07T12:23:22;7.53;;;3.20;;
46437;SDS011;32137;48.728;9.142;2023-05-07T12:25:48;11.82;;;3.08;;
46437;SDS011;32137;48.728;9.142;2023-05-07T12:28:14;9.80;;;2.63;;
46437;SDS011;32137;48.728;9.142;2023-05-07T12:30:44;5.40;;;2.20;;
46437;SDS011;32137;48.728;9.142;2023-05-07T12:33:11;7.40;;;2.42;;
46437;SDS011;32137;48.728;9.142;2023-05-07T12:35:39;4.68;;;2.45;;
46437;SDS011;32137;48.728;9.142;2023-05-07T12:38:09;11.00;;;4.00;;
46437;SDS011;32137;48.728;9.142;2023-05-07T12:40:47;7.68;;;2.45;;
46437;SDS011;32137;48.728;9.142;2023-05-07T12:45:51;6.05;;;1.75;;
46437;SDS011;32137;48.728;9.142;2023-05-07T12:48:19;3.08;;;1.70;;
46437;SDS011;32137;48.728;9.142;2023-05-07T12:50:48;4.85;;;1.80;;
46437;SDS011;32137;48.728;9.142;2023-05-07T12:53:14;4.13;;;1.20;;
46437;SDS011;32137;48.728;9.142;2023-05-07T12:55:41;6.88;;;1.48;;
46437;SDS011;32137;48.728;9.142;2023-05-07T12:58:17;4.75;;;1.20;;
46437;SDS011;32137;48.728;9.142;2023-05-07T13:00:48;3.85;;;1.23;;
46437;SDS011;32137;48.728;9.142;2023-05-07T13:03:22;2.50;;;1.55;;
46437;SDS011;32137;48.728;9.142;2023-05-07T13:05:48;15.88;;;2.42;;
46437;SDS011;32137;48.728;9.142;2023-05-07T13:08:28;5.40;;;1.73;;
46437;SDS011;32137;48.728;9.142;2023-05-07T13:10:56;3.60;;;1.80;;
46437;SDS011;32137;48.728;9.142;2023-05-07T13:13:31;4.63;;;2.15;;
46437;SDS011;32137;48.728;9.142;2023-05-07T13:15:58;2.42;;;1.60;;
46437;SDS011;32137;48.728;9.142;2023-05-07T13:18:25;2.97;;;2.08;;
46437;SDS011;32137;48.728;9.142;2023-05-07T13:20:51;5.57;;;2.65;;
46437;SDS011;32137;48.728;9.142;2023-05-07T13:23:17;8.98;;;2.85;;
46437;SDS011;32137;48.728;9.142;2023-05-07T13:25:43;12.40;;;3.58;;
46437;SDS011;32137;48.728;9.142;2023-05-07T13:28:09;7.05;;;2.60;;
46437;SDS011;32137;48.728;9.142;2023-05-07T13:30:34;4.20;;;2.65;;
46437;SDS011;32137;48.728;9.142;2023-05-07T13:33:00;5.22;;;2.33;;
46437;SDS011;32137;48.728;9.142;2023-05-07T13:35:26;3.85;;;1.80;;
46437;SDS011;32137;48.728;9.142;2023-05-07T13:37:54;5.57;;;1.60;;
46437;SDS011;32137;48.728;9.142;2023-05-07T13:40:20;6.35;;;2.03;;
46437;SDS011;32137;48.728;9.142;2023-05-07T13:42:47;5.55;;;2.22;;
46437;SDS011;32137;48.728;9.142;2023-05-07T13:45:17;6.05;;;2.45;;
46437;SDS011;32137;48.728;9.142;2023-05-07T13:47:46;3.88;;;2.33;;
46437;SDS011;32137;48.728;9.142;2023-05-07T13:50:12;8.57;;;2.03;;
46437;SDS011;32137;48.728;9.142;2023-05-07T13:52:41;12.30;;;3.78;;
46437;SDS011;32137;48.728;9.142;2023-05-07T13:55:08;11.13;;;3.88;;
46437;SDS011;32137;48.728;9.142;2023-05-07T13:57:35;23.25;;;4.38;;
46437;SDS011;32137;48.728;9.142;2023-05-07T14:00:02;16.52;;;5.97;;
46437;SDS011;32137;48.728;9.142;2023-05-07T14:02:29;31.05;;;9.68;;
46437;SDS011;32137;48.728;9.142;2023-05-07T14:04:55;41.72;;;11.88;;
46437;SDS011;32137;48.728;9.142;2023-05-07T14:07:21;32.85;;;11.48;;
46437;SDS011;32137;48.728;9.142;2023-05-07T14:09:47;43.90;;;15.30;;
46437;SDS011;32137;48.728;9.142;2023-05-07T14:12:12;39.35;;;16.08;;
46437;SDS011;32137;48.728;9.142;2023-05-07T14:14:38;98.50;;;31.30;;
46437;SDS011;32137;48.728;9.142;2023-05-07T14:17:03;66.32;;;23.65;;
46437;SDS011;32137;48.728;9.142;2023-05-07T14:19:29;104.00;;;36.88;;
46437;SDS011;32137;48.728;9.142;2023-05-07T14:21:54;56.13;;;22.70;;
46437;SDS011;32137;48.728;9.142;2023-05-07T14:24:20;54.55;;;25.65;;
46437;SDS011;32137;48.728;9.142;2023-05-07T14:26:46;84.05;;;31.55;;
46437;SDS011;32137;48.728;9.142;2023-05-07T14:29:11;79.13;;;33.22;;
46437;SDS011;32137;48.728;9.142;2023-05-07T14:31:37;70.18;;;27.55;;
46437;SDS011;32137;48.728;9.142;2023-05-07T14:34:02;102.38;;;37.20;;
46437;SDS011;32137;48.728;9.142;2023-05-07T14:36:29;64.50;;;25.17;;
46437;SDS011;32137;48.728;9.142;2023-05-07T14:38:56;51.30;;;23.17;;
46437;SDS011;32137;48.728;9.142;2023-05-07T14:41:24;70.90;;;29.70;;
46437;SDS011;32137;48.728;9.142;2023-05-07T14:43:49;84.85;;;32.65;;
46437;SDS011;32137;48.728;9.142;2023-05-07T14:46:16;103.38;;;40.97;;
46437;SDS011;32137;48.728;9.142;2023-05-07T14:48:43;41.88;;;23.38;;
46437;SDS011;32137;48.728;9.142;2023-05-07T14:51:10;77.38;;;29.15;;
46437;SDS011;32137;48.728;9.142;2023-05-07T14:53:36;56.80;;;25.58;;
46437;SDS011;32137;48.728;9.142;2023-05-07T14:56:01;73.55;;;29.92;;
46437;SDS011;32137;48.728;9.142;2023-05-07T14:58:28;83.10;;;32.30;;